sensor_id;sensor_type;location;lat;lon;timestamp;temperature;humidity
16635;DHT22;8431;52.458;9.998;2023-04-24T00:02:05;10.90;99.90
16635;DHT22;8431;52.458;9.998;2023-04-24T00:04:35;10.90;99.90
16635;DHT22;8431;52.458;9.998;2023-04-24T00:07:07;10.80;99.90
16635;DHT22;8431;52.458;9.998;2023-04-24T00:09:35;10.80;99.90
16635;DHT22;8431;52.458;9.998;2023-04-24T00:12:03;10.80;99.90
16635;DHT22;8431;52.458;9.998;2023-04-24T00:14:31;10.70;99.90
16635;DHT22;8431;52.458;9.998;2023-04-24T00:16:58;10.80;99.90
16635;DHT22;8431;52.458;9.998;2023-04-24T00:19:26;10.80;99.90
16635;DHT22;8431;52.458;9.998;2023-04-24T00:21:54;10.80;99.90
16635;DHT22;8431;52.458;9.998;2023-04-24T00:24:23;10.70;99.90
16635;DHT22;8431;52.458;9.998;2023-04-24T00:26:51;10.60;99.90
16635;DHT22;8431;52.458;9.998;2023-04-24T00:29:18;10.60;99.90
16635;DHT22;8431;52.458;9.998;2023-04-24T00:31:46;10.50;99.90
16635;DHT22;8431;52.458;9.998;2023-04-24T00:34:14;10.40;99.90
16635;DHT22;8431;52.458;9.998;2023-04-24T00:36:41;10.40;99.90
16635;DHT22;8431;52.458;9.998;2023-04-24T00:39:09;10.30;99.90
16635;DHT22;8431;52.458;9.998;2023-04-24T00:41:44;10.20;99.90
16635;DHT22;8431;52.458;9.998;2023-04-24T00:44:13;10.20;99.90
16635;DHT22;8431;52.458;9.998;2023-04-24T00:46:41;10.10;99.90
16635;DHT22;8431;52.458;9.998;2023-04-24T00:49:09;10.10;99.90
16635;DHT22;8431;52.458;9.998;2023-04-24T00:51:37;10.10;99.90
16635;DHT22;8431;52.458;9.998;2023-04-24T00:54:06;10.00;99.90
16635;DHT22;8431;52.458;9.998;2023-04-24T00:56:34;9.90;99.90
16635;DHT22;8431;52.458;9.998;2023-04-24T00:59:03;9.80;99.90
16635;DHT22;8431;52.458;9.998;2023-04-24T01:01:31;9.80;99.90
16635;DHT22;8431;52.458;9.998;2023-04-24T01:03:59;9.80;99.90
16635;DHT22;8431;52.458;9.998;2023-04-24T01:06:29;9.70;99.90
16635;DHT22;8431;52.458;9.998;2023-04-24T01:08:57;9.70;99.90
16635;DHT22;8431;52.458;9.998;2023-04-24T01:11:26;9.80;99.90
16635;DHT22;8431;52.458;9.998;2023-04-24T01:13:55;10.00;99.90
16635;DHT22;8431;52.458;9.998;2023-04-24T01:16:26;10.30;99.90
16635;DHT22;8431;52.458;9.998;2023-04-24T01:18:54;10.50;99.90
16635;DHT22;8431;52.458;9.998;2023-04-24T01:21:21;10.70;99.90
16635;DHT22;8431;52.458;9.998;2023-04-24T01:23:55;10.70;99.90
16635;DHT22;8431;52.458;9.998;2023-04-24T01:26:23;10.70;99.90
16635;DHT22;8431;52.458;9.998;2023-04-24T01:28:51;10.80;99.90
16635;DHT22;8431;52.458;9.998;2023-04-24T01:31:21;10.70;99.90
16635;DHT22;8431;52.458;9.998;2023-04-24T01:33:51;10.50;99.90
16635;DHT22;8431;52.458;9.998;2023-04-24T01:36:22;10.30;99.90
16635;DHT22;8431;52.458;9.998;2023-04-24T01:38:57;10.20;99.90
16635;DHT22;8431;52.458;9.998;2023-04-24T01:41:27;10.20;99.90
16635;DHT22;8431;52.458;9.998;2023-04-24T01:43:58;10.20;99.90
16635;DHT22;8431;52.458;9.998;2023-04-24T01:46:28;10.30;99.90
16635;DHT22;8431;52.458;9.998;2023-04-24T01:49:00;10.40;99.90
16635;DHT22;8431;52.458;9.998;2023-04-24T01:51:30;10.50;99.90
16635;DHT22;8431;52.458;9.998;2023-04-24T01:54:01;10.50;99.90
16635;DHT22;8431;52.458;9.998;2023-04-24T01:56:34;10.50;99.90
16635;DHT22;8431;52.458;9.998;2023-04-24T01:59:04;10.60;99.90
16635;DHT22;8431;52.458;9.998;2023-04-24T02:01:34;10.70;99.90
16635;DHT22;8431;52.458;9.998;2023-04-24T02:04:05;10.70;99.90
16635;DHT22;8431;52.458;9.998;2023-04-24T02:06:35;10.60;99.90
16635;DHT22;8431;52.458;9.998;2023-04-24T02:09:05;10.60;99.90
16635;DHT22;8431;52.458;9.998;2023-04-24T02:11:33;10.50;99.90
16635;DHT22;8431;52.458;9.998;2023-04-24T02:14:01;10.30;99.90
16635;DHT22;8431;52.458;9.998;2023-04-24T02:16:30;10.40;99.90
16635;DHT22;8431;52.458;9.998;2023-04-24T02:19:05;10.50;99.90
16635;DHT22;8431;52.458;9.998;2023-04-24T02:21:34;10.50;99.90
16635;DHT22;8431;52.458;9.998;2023-04-24T02:24:05;10.50;99.90
16635;DHT22;8431;52.458;9.998;2023-04-24T02:26:34;10.40;99.90
16635;DHT22;8431;52.458;9.998;2023-04-24T02:29:02;10.40;99.90
16635;DHT22;8431;52.458;9.998;2023-04-24T02:31:31;10.30;99.90
16635;DHT22;8431;52.458;9.998;2023-04-24T02:34:03;10.30;99.90
16635;DHT22;8431;52.458;9.998;2023-04-24T02:36:34;10.30;99.90
16635;DHT22;8431;52.458;9.998;2023-04-24T02:39:05;10.20;99.90
16635;DHT22;8431;52.458;9.998;2023-04-24T02:41:33;10.30;99.90
16635;DHT22;8431;52.458;9.998;2023-04-24T02:44:02;10.40;99.90
16635;DHT22;8431;52.458;9.998;2023-04-24T02:46:30;10.50;99.90
16635;DHT22;8431;52.458;9.998;2023-04-24T02:48:59;10.50;99.90
16635;DHT22;8431;52.458;9.998;2023-04-24T02:51:28;10.50;99.90
16635;DHT22;8431;52.458;9.998;2023-04-24T02:53:57;10.50;99.90
16635;DHT22;8431;52.458;9.998;2023-04-24T02:56:26;10.30;99.90
16635;DHT22;8431;52.458;9.998;2023-04-24T02:58:56;10.20;99.90
16635;DHT22;8431;52.458;9.998;2023-04-24T03:01:23;10.20;99.90
16635;DHT22;8431;52.458;9.998;2023-04-24T03:03:50;10.10;99.90
16635;DHT22;8431;52.458;9.998;2023-04-24T03:06:17;10.10;99.90
16635;DHT22;8431;52.458;9.998;2023-04-24T03:08:44;10.00;99.90
16635;DHT22;8431;52.458;9.998;2023-04-24T03:11:11;9.90;99.90
16635;DHT22;8431;52.458;9.998;2023-04-24T03:13:39;9.80;99.90
16635;DHT22;8431;52.458;9.998;2023-04-24T03:16:06;9.70;99.90
16635;DHT22;8431;52.458;9.998;2023-04-24T03:18:35;9.70;99.90
16635;DHT22;8431;52.458;9.998;2023-04-24T03:21:02;9.70;99.90
16635;DHT22;8431;52.458;9.998;2023-04-24T03:23:29;9.70;99.90
16635;DHT22;8431;52.458;9.998;2023-04-24T03:25:56;9.70;99.90
16635;DHT22;8431;52.458;9.998;2023-04-24T03:28:23;9.80;99.90
16635;DHT22;8431;52.458;9.998;2023-04-24T03:30:52;9.80;99.90
16635;DHT22;8431;52.458;9.998;2023-04-24T03:33:19;9.70;99.90
16635;DHT22;8431;52.458;9.998;2023-04-24T03:35:45;9.80;99.90
16635;DHT22;8431;52.458;9.998;2023-04-24T03:38:12;9.90;99.90
16635;DHT22;8431;52.458;9.998;2023-04-24T03:40:39;9.90;99.90
16635;DHT22;8431;52.458;9.998;2023-04-24T03:43:06;10.00;99.90
16635;DHT22;8431;52.458;9.998;2023-04-24T03:45:33;10.00;99.90
16635;DHT22;8431;52.458;9.998;2023-04-24T03:48:02;10.00;99.90
16635;DHT22;8431;52.458;9.998;2023-04-24T03:50:29;9.90;99.90
16635;DHT22;8431;52.458;9.998;2023-04-24T03:52:56;9.90;99.90
16635;DHT22;8431;52.458;9.998;2023-04-24T03:55:23;9.80;99.90
16635;DHT22;8431;52.458;9.998;2023-04-24T03:57:50;9.80;99.90
16635;DHT22;8431;52.458;9.998;2023-04-24T04:00:17;9.80;99.90
16635;DHT22;8431;52.458;9.998;2023-04-24T04:02:45;9.70;99.90
16635;DHT22;8431;52.458;9.998;2023-04-24T04:05:16;9.60;99.90
16635;DHT22;8431;52.458;9.998;2023-04-24T04:07:43;9.70;99.90
16635;DHT22;8431;52.458;9.998;2023-04-24T04:10:10;9.60;99.90
16635;DHT22;8431;52.458;9.998;2023-04-24T04:12:37;9.50;99.90
16635;DHT22;8431;52.458;9.998;2023-04-24T04:15:05;9.40;99.90
16635;DHT22;8431;52.458;9.998;2023-04-24T04:17:32;9.30;99.90
16635;DHT22;8431;52.458;9.998;2023-04-24T04:19:59;9.10;99.90
16635;DHT22;8431;52.458;9.998;2023-04-24T04:22:28;9.10;99.90
16635;DHT22;8431;52.458;9.998;2023-04-24T04:24:55;9.10;99.90
16635;DHT22;8431;52.458;9.998;2023-04-24T04:27:25;9.00;99.90
16635;DHT22;8431;52.458;9.998;2023-04-24T04:29:52;9.00;99.90
16635;DHT22;8431;52.458;9.998;2023-04-24T04:32:19;8.90;99.90
16635;DHT22;8431;52.458;9.998;2023-04-24T04:34:47;9.00;99.90
16635;DHT22;8431;52.458;9.998;2023-04-24T04:37:18;9.00;99.90
16635;DHT22;8431;52.458;9.998;2023-04-24T04:39:46;8.90;99.90
16635;DHT22;8431;52.458;9.998;2023-04-24T04:42:13;8.90;99.90
16635;DHT22;8431;52.458;9.998;2023-04-24T04:44:41;8.80;99.90
16635;DHT22;8431;52.458;9.998;2023-04-24T04:47:08;8.60;99.90
16635;DHT22;8431;52.458;9.998;2023-04-24T04:49:36;8.50;99.90
16635;DHT22;8431;52.458;9.998;2023-04-24T04:52:04;8.40;99.90
16635;DHT22;8431;52.458;9.998;2023-04-24T04:54:31;8.30;99.90
16635;DHT22;8431;52.458;9.998;2023-04-24T04:57:00;8.20;99.90
16635;DHT22;8431;52.458;9.998;2023-04-24T04:59:27;8.20;99.90
16635;DHT22;8431;52.458;9.998;2023-04-24T05:01:54;8.10;99.90
16635;DHT22;8431;52.458;9.998;2023-04-24T05:04:21;8.20;99.90
16635;DHT22;8431;52.458;9.998;2023-04-24T05:06:48;8.20;99.90
16635;DHT22;8431;52.458;9.998;2023-04-24T05:09:16;8.20;99.90
16635;DHT22;8431;52.458;9.998;2023-04-24T05:11:43;8.30;99.90
16635;DHT22;8431;52.458;9.998;2023-04-24T05:14:12;8.50;99.90
16635;DHT22;8431;52.458;9.998;2023-04-24T05:16:39;8.70;99.90
16635;DHT22;8431;52.458;9.998;2023-04-24T05:19:06;8.90;99.90
16635;DHT22;8431;52.458;9.998;2023-04-24T05:21:34;8.90;99.90
16635;DHT22;8431;52.458;9.998;2023-04-24T05:24:00;9.00;99.90
16635;DHT22;8431;52.458;9.998;2023-04-24T05:26:27;9.10;99.90
16635;DHT22;8431;52.458;9.998;2023-04-24T05:28:54;9.10;99.90
16635;DHT22;8431;52.458;9.998;2023-04-24T05:31:24;9.20;99.90
16635;DHT22;8431;52.458;9.998;2023-04-24T05:33:51;9.20;99.90
16635;DHT22;8431;52.458;9.998;2023-04-24T05:36:18;9.30;99.90
16635;DHT22;8431;52.458;9.998;2023-04-24T05:38:46;9.30;99.90
16635;DHT22;8431;52.458;9.998;2023-04-24T05:41:13;9.40;99.90
16635;DHT22;8431;52.458;9.998;2023-04-24T05:43:40;9.50;99.90
16635;DHT22;8431;52.458;9.998;2023-04-24T05:46:07;9.60;99.90
16635;DHT22;8431;52.458;9.998;2023-04-24T05:48:36;9.70;99.90
16635;DHT22;8431;52.458;9.998;2023-04-24T05:51:03;9.90;99.90
16635;DHT22;8431;52.458;9.998;2023-04-24T05:53:30;10.00;99.90
16635;DHT22;8431;52.458;9.998;2023-04-24T05:55:57;10.00;99.90
16635;DHT22;8431;52.458;9.998;2023-04-24T05:58:24;10.00;99.90
16635;DHT22;8431;52.458;9.998;2023-04-24T06:00:51;10.00;99.90
16635;DHT22;8431;52.458;9.998;2023-04-24T06:03:18;10.00;99.90
16635;DHT22;8431;52.458;9.998;2023-04-24T06:05:47;10.20;99.90
16635;DHT22;8431;52.458;9.998;2023-04-24T06:08:14;10.30;99.90
16635;DHT22;8431;52.458;9.998;2023-04-24T06:10:41;10.40;99.90
16635;DHT22;8431;52.458;9.998;2023-04-24T06:13:08;10.40;99.90
16635;DHT22;8431;52.458;9.998;2023-04-24T06:15:35;10.50;99.90
16635;DHT22;8431;52.458;9.998;2023-04-24T06:18:02;10.70;99.90
16635;DHT22;8431;52.458;9.998;2023-04-24T06:20:29;10.90;99.90
16635;DHT22;8431;52.458;9.998;2023-04-24T06:22:58;11.10;99.90
16635;DHT22;8431;52.458;9.998;2023-04-24T06:25:25;11.30;99.90
16635;DHT22;8431;52.458;9.998;2023-04-24T06:27:53;11.60;99.90
16635;DHT22;8431;52.458;9.998;2023-04-24T06:30:20;11.80;99.90
16635;DHT22;8431;52.458;9.998;2023-04-24T06:32:48;11.90;99.90
16635;DHT22;8431;52.458;9.998;2023-04-24T06:35:16;11.80;99.90
16635;DHT22;8431;52.458;9.998;2023-04-24T06:37:43;11.80;99.90
16635;DHT22;8431;52.458;9.998;2023-04-24T06:40:11;11.70;99.90
16635;DHT22;8431;52.458;9.998;2023-04-24T06:42:39;11.70;99.90
16635;DHT22;8431;52.458;9.998;2023-04-24T06:45:06;11.60;99.90
16635;DHT22;8431;52.458;9.998;2023-04-24T06:47:33;11.50;99.90
16635;DHT22;8431;52.458;9.998;2023-04-24T06:50:00;11.50;99.90
16635;DHT22;8431;52.458;9.998;2023-04-24T06:52:27;11.50;99.90
16635;DHT22;8431;52.458;9.998;2023-04-24T06:55:00;11.50;99.90
16635;DHT22;8431;52.458;9.998;2023-04-24T06:57:29;11.50;99.90
16635;DHT22;8431;52.458;9.998;2023-04-24T06:59:56;11.50;99.90
16635;DHT22;8431;52.458;9.998;2023-04-24T07:02:23;11.60;99.90
16635;DHT22;8431;52.458;9.998;2023-04-24T07:04:50;11.80;99.90
16635;DHT22;8431;52.458;9.998;2023-04-24T07:07:18;12.00;99.90
16635;DHT22;8431;52.458;9.998;2023-04-24T07:09:45;12.20;99.90
16635;DHT22;8431;52.458;9.998;2023-04-24T07:12:12;12.10;99.90
16635;DHT22;8431;52.458;9.998;2023-04-24T07:14:41;12.20;99.90
16635;DHT22;8431;52.458;9.998;2023-04-24T07:17:08;12.10;99.90
16635;DHT22;8431;52.458;9.998;2023-04-24T07:19:35;12.10;99.90
16635;DHT22;8431;52.458;9.998;2023-04-24T07:22:02;12.20;99.90
16635;DHT22;8431;52.458;9.998;2023-04-24T07:24:30;12.20;99.90
16635;DHT22;8431;52.458;9.998;2023-04-24T07:26:58;12.10;99.90
16635;DHT22;8431;52.458;9.998;2023-04-24T07:29:26;12.10;99.90
16635;DHT22;8431;52.458;9.998;2023-04-24T07:32:13;12.00;99.90
16635;DHT22;8431;52.458;9.998;2023-04-24T07:34:55;12.10;99.90
16635;DHT22;8431;52.458;9.998;2023-04-24T07:37:41;12.20;99.90
16635;DHT22;8431;52.458;9.998;2023-04-24T07:40:12;12.50;99.90
16635;DHT22;8431;52.458;9.998;2023-04-24T07:42:57;12.60;99.90
16635;DHT22;8431;52.458;9.998;2023-04-24T07:45:24;12.60;99.90
16635;DHT22;8431;52.458;9.998;2023-04-24T07:47:55;12.70;99.90
16635;DHT22;8431;52.458;9.998;2023-04-24T07:50:22;12.80;99.90
16635;DHT22;8431;52.458;9.998;2023-04-24T07:53:04;12.80;99.90
16635;DHT22;8431;52.458;9.998;2023-04-24T07:55:31;13.00;99.90
16635;DHT22;8431;52.458;9.998;2023-04-24T07:58:17;12.90;99.90
16635;DHT22;8431;52.458;9.998;2023-04-24T08:00:44;12.70;99.90
16635;DHT22;8431;52.458;9.998;2023-04-24T08:03:31;12.60;99.90
16635;DHT22;8431;52.458;9.998;2023-04-24T08:05:58;12.50;99.90
16635;DHT22;8431;52.458;9.998;2023-04-24T08:08:44;12.40;99.90
16635;DHT22;8431;52.458;9.998;2023-04-24T08:11:11;12.20;99.90
16635;DHT22;8431;52.458;9.998;2023-04-24T08:13:57;12.20;99.90
16635;DHT22;8431;52.458;9.998;2023-04-24T08:16:24;12.40;99.90
16635;DHT22;8431;52.458;9.998;2023-04-24T08:19:11;12.70;99.90
16635;DHT22;8431;52.458;9.998;2023-04-24T08:21:38;13.00;99.90
16635;DHT22;8431;52.458;9.998;2023-04-24T08:24:24;13.20;99.90
16635;DHT22;8431;52.458;9.998;2023-04-24T08:26:51;12.80;99.90
16635;DHT22;8431;52.458;9.998;2023-04-24T08:29:38;12.60;99.90
16635;DHT22;8431;52.458;9.998;2023-04-24T08:32:05;12.90;99.90
16635;DHT22;8431;52.458;9.998;2023-04-24T08:34:52;12.80;99.90
16635;DHT22;8431;52.458;9.998;2023-04-24T08:37:22;13.00;99.90
16635;DHT22;8431;52.458;9.998;2023-04-24T08:39:49;13.00;99.90
16635;DHT22;8431;52.458;9.998;2023-04-24T08:42:19;13.00;99.90
16635;DHT22;8431;52.458;9.998;2023-04-24T08:45:07;13.00;99.90
16635;DHT22;8431;52.458;9.998;2023-04-24T08:47:35;13.00;99.90
16635;DHT22;8431;52.458;9.998;2023-04-24T08:50:22;12.90;99.90
16635;DHT22;8431;52.458;9.998;2023-04-24T08:52:50;12.80;99.90
16635;DHT22;8431;52.458;9.998;2023-04-24T08:55:37;13.20;99.90
16635;DHT22;8431;52.458;9.998;2023-04-24T08:58:05;13.30;99.90
16635;DHT22;8431;52.458;9.998;2023-04-24T09:00:51;13.40;99.90
16635;DHT22;8431;52.458;9.998;2023-04-24T09:03:19;13.40;99.90
16635;DHT22;8431;52.458;9.998;2023-04-24T09:06:08;13.80;99.90
16635;DHT22;8431;52.458;9.998;2023-04-24T09:08:36;14.00;99.90
16635;DHT22;8431;52.458;9.998;2023-04-24T09:11:22;14.40;99.90
16635;DHT22;8431;52.458;9.998;2023-04-24T09:13:52;14.40;99.90
16635;DHT22;8431;52.458;9.998;2023-04-24T09:16:38;14.00;99.90
16635;DHT22;8431;52.458;9.998;2023-04-24T09:19:05;13.80;99.90
16635;DHT22;8431;52.458;9.998;2023-04-24T09:21:53;13.70;99.90
16635;DHT22;8431;52.458;9.998;2023-04-24T09:24:21;13.60;99.90
16635;DHT22;8431;52.458;9.998;2023-04-24T09:27:07;13.50;99.90
16635;DHT22;8431;52.458;9.998;2023-04-24T09:29:54;13.40;99.90
16635;DHT22;8431;52.458;9.998;2023-04-24T09:32:40;13.30;99.90
16635;DHT22;8431;52.458;9.998;2023-04-24T09:35:10;13.60;99.90
16635;DHT22;8431;52.458;9.998;2023-04-24T09:37:40;13.60;99.90
16635;DHT22;8431;52.458;9.998;2023-04-24T09:40:09;13.80;99.90
16635;DHT22;8431;52.458;9.998;2023-04-24T09:42:57;13.80;99.90
16635;DHT22;8431;52.458;9.998;2023-04-24T09:45:28;13.70;99.90
16635;DHT22;8431;52.458;9.998;2023-04-24T09:48:14;13.90;99.90
16635;DHT22;8431;52.458;9.998;2023-04-24T09:50:46;13.60;99.90
16635;DHT22;8431;52.458;9.998;2023-04-24T09:53:33;13.30;99.90
16635;DHT22;8431;52.458;9.998;2023-04-24T09:56:03;13.00;99.90
16635;DHT22;8431;52.458;9.998;2023-04-24T09:58:52;12.80;99.90
16635;DHT22;8431;52.458;9.998;2023-04-24T10:01:30;12.60;99.90
16635;DHT22;8431;52.458;9.998;2023-04-24T10:04:16;12.70;99.90
16635;DHT22;8431;52.458;9.998;2023-04-24T10:06:44;13.20;99.90
16635;DHT22;8431;52.458;9.998;2023-04-24T10:09:32;13.50;99.90
16635;DHT22;8431;52.458;9.998;2023-04-24T10:12:00;13.70;99.90
16635;DHT22;8431;52.458;9.998;2023-04-24T10:14:46;13.90;99.90
16635;DHT22;8431;52.458;9.998;2023-04-24T10:17:14;13.90;99.90
16635;DHT22;8431;52.458;9.998;2023-04-24T10:19:43;13.50;99.90
16635;DHT22;8431;52.458;9.998;2023-04-24T10:22:10;13.30;99.90
16635;DHT22;8431;52.458;9.998;2023-04-24T10:24:40;13.20;99.90
16635;DHT22;8431;52.458;9.998;2023-04-24T10:27:27;13.10;99.90
16635;DHT22;8431;52.458;9.998;2023-04-24T10:29:55;12.90;99.90
16635;DHT22;8431;52.458;9.998;2023-04-24T10:32:40;12.90;99.90
16635;DHT22;8431;52.458;9.998;2023-04-24T10:35:08;13.10;99.90
16635;DHT22;8431;52.458;9.998;2023-04-24T10:37:38;13.20;99.90
16635;DHT22;8431;52.458;9.998;2023-04-24T10:40:09;13.20;99.90
16635;DHT22;8431;52.458;9.998;2023-04-24T10:42:56;13.20;99.90
16635;DHT22;8431;52.458;9.998;2023-04-24T10:45:24;13.40;99.90
16635;DHT22;8431;52.458;9.998;2023-04-24T10:48:10;13.40;99.90
16635;DHT22;8431;52.458;9.998;2023-04-24T10:50:43;13.20;99.90
16635;DHT22;8431;52.458;9.998;2023-04-24T10:53:31;13.10;99.90
16635;DHT22;8431;52.458;9.998;2023-04-24T10:56:05;13.10;99.90
16635;DHT22;8431;52.458;9.998;2023-04-24T10:58:38;13.00;99.90
16635;DHT22;8431;52.458;9.998;2023-04-24T11:01:06;12.90;99.90
16635;DHT22;8431;52.458;9.998;2023-04-24T11:03:38;12.70;99.90
16635;DHT22;8431;52.458;9.998;2023-04-24T11:06:08;12.50;99.90
16635;DHT22;8431;52.458;9.998;2023-04-24T11:13:02;12.30;99.90
16635;DHT22;8431;52.458;9.998;2023-04-24T11:16:23;12.20;99.90
16635;DHT22;8431;52.458;9.998;2023-04-24T11:19:55;12.20;99.90
16635;DHT22;8431;52.458;9.998;2023-04-24T11:23:53;12.40;99.90
16635;DHT22;8431;52.458;9.998;2023-04-24T11:26:47;12.90;99.90
16635;DHT22;8431;52.458;9.998;2023-04-24T11:30:03;13.10;99.90
16635;DHT22;8431;52.458;9.998;2023-04-24T11:40:46;12.30;99.90
16635;DHT22;8431;52.458;9.998;2023-04-24T11:43:36;12.00;99.90
16635;DHT22;8431;52.458;9.998;2023-04-24T11:46:04;11.80;99.90
16635;DHT22;8431;52.458;9.998;2023-04-24T11:48:34;11.40;99.90
16635;DHT22;8431;52.458;9.998;2023-04-24T11:51:44;11.20;99.90
16635;DHT22;8431;52.458;9.998;2023-04-24T12:06:27;12.60;99.90
16635;DHT22;8431;52.458;9.998;2023-04-24T12:08:54;13.20;99.90
16635;DHT22;8431;52.458;9.998;2023-04-24T12:12:16;13.10;99.90
16635;DHT22;8431;52.458;9.998;2023-04-24T12:15:43;13.20;99.90
16635;DHT22;8431;52.458;9.998;2023-04-24T12:18:25;13.60;99.90
16635;DHT22;8431;52.458;9.998;2023-04-24T12:20:52;13.90;99.90
16635;DHT22;8431;52.458;9.998;2023-04-24T12:23:35;14.20;99.90
16635;DHT22;8431;52.458;9.998;2023-04-24T12:26:04;14.80;99.90
16635;DHT22;8431;52.458;9.998;2023-04-24T12:28:35;14.80;99.90
16635;DHT22;8431;52.458;9.998;2023-04-24T12:31:25;14.20;99.90
16635;DHT22;8431;52.458;9.998;2023-04-24T12:34:18;13.60;99.90
16635;DHT22;8431;52.458;9.998;2023-04-24T12:37:32;13.40;99.90
16635;DHT22;8431;52.458;9.998;2023-04-24T12:40:06;13.10;99.90
16635;DHT22;8431;52.458;9.998;2023-04-24T12:42:34;12.90;99.90
16635;DHT22;8431;52.458;9.998;2023-04-24T12:45:04;12.60;99.90
16635;DHT22;8431;52.458;9.998;2023-04-24T12:47:35;12.10;99.90
16635;DHT22;8431;52.458;9.998;2023-04-24T12:50:03;12.00;99.90
16635;DHT22;8431;52.458;9.998;2023-04-24T12:52:30;11.90;99.90
16635;DHT22;8431;52.458;9.998;2023-04-24T12:54:58;12.00;99.90
16635;DHT22;8431;52.458;9.998;2023-04-24T12:57:28;12.00;99.90
16635;DHT22;8431;52.458;9.998;2023-04-24T12:59:57;12.10;99.90
16635;DHT22;8431;52.458;9.998;2023-04-24T13:02:25;12.30;99.90
16635;DHT22;8431;52.458;9.998;2023-04-24T13:04:53;12.60;99.90
16635;DHT22;8431;52.458;9.998;2023-04-24T13:07:20;12.80;99.90
16635;DHT22;8431;52.458;9.998;2023-04-24T13:09:48;12.50;99.90
16635;DHT22;8431;52.458;9.998;2023-04-24T13:12:16;12.40;99.90
16635;DHT22;8431;52.458;9.998;2023-04-24T13:14:44;12.60;99.90
16635;DHT22;8431;52.458;9.998;2023-04-24T13:17:12;12.40;99.90
16635;DHT22;8431;52.458;9.998;2023-04-24T13:19:41;12.10;99.90
16635;DHT22;8431;52.458;9.998;2023-04-24T13:22:09;12.00;99.90
16635;DHT22;8431;52.458;9.998;2023-04-24T13:25:37;12.00;99.90
16635;DHT22;8431;52.458;9.998;2023-04-24T13:41:21;11.00;99.90
16635;DHT22;8431;52.458;9.998;2023-04-24T13:50:57;10.60;99.90
16635;DHT22;8431;52.458;9.998;2023-04-24T13:53:28;10.30;99.90
16635;DHT22;8431;52.458;9.998;2023-04-24T13:55:55;10.50;99.90
16635;DHT22;8431;52.458;9.998;2023-04-24T13:58:22;10.40;99.90
16635;DHT22;8431;52.458;9.998;2023-04-24T14:00:52;10.60;99.90
16635;DHT22;8431;52.458;9.998;2023-04-24T14:03:20;10.40;99.90
16635;DHT22;8431;52.458;9.998;2023-04-24T14:05:47;10.30;99.90
16635;DHT22;8431;52.458;9.998;2023-04-24T14:08:20;10.30;99.90
16635;DHT22;8431;52.458;9.998;2023-04-24T14:10:50;10.30;99.90
16635;DHT22;8431;52.458;9.998;2023-04-24T14:13:18;10.30;99.90
16635;DHT22;8431;52.458;9.998;2023-04-24T14:15:47;10.20;99.90
16635;DHT22;8431;52.458;9.998;2023-04-24T14:18:14;10.00;99.90
16635;DHT22;8431;52.458;9.998;2023-04-24T14:20:41;9.70;99.90
16635;DHT22;8431;52.458;9.998;2023-04-24T14:23:08;9.60;99.90
16635;DHT22;8431;52.458;9.998;2023-04-24T14:25:35;9.50;99.90
16635;DHT22;8431;52.458;9.998;2023-04-24T14:28:05;9.50;99.90
16635;DHT22;8431;52.458;9.998;2023-04-24T14:30:36;9.50;99.90
16635;DHT22;8431;52.458;9.998;2023-04-24T14:33:03;9.20;99.90
16635;DHT22;8431;52.458;9.998;2023-04-24T14:35:30;9.10;99.90
16635;DHT22;8431;52.458;9.998;2023-04-24T14:37:59;9.10;99.90
16635;DHT22;8431;52.458;9.998;2023-04-24T14:40:26;9.10;99.90
16635;DHT22;8431;52.458;9.998;2023-04-24T14:42:53;8.90;99.90
16635;DHT22;8431;52.458;9.998;2023-04-24T14:45:22;8.80;99.90
16635;DHT22;8431;52.458;9.998;2023-04-24T14:47:49;8.90;99.90
16635;DHT22;8431;52.458;9.998;2023-04-24T14:50:16;9.00;99.90
16635;DHT22;8431;52.458;9.998;2023-04-24T14:52:43;9.10;99.90
16635;DHT22;8431;52.458;9.998;2023-04-24T14:55:10;9.10;99.90
16635;DHT22;8431;52.458;9.998;2023-04-24T14:57:37;9.10;99.90
16635;DHT22;8431;52.458;9.998;2023-04-24T15:00:06;8.90;99.90
16635;DHT22;8431;52.458;9.998;2023-04-24T15:02:36;8.80;99.90
16635;DHT22;8431;52.458;9.998;2023-04-24T15:05:07;8.70;99.90
16635;DHT22;8431;52.458;9.998;2023-04-24T15:07:34;8.70;99.90
16635;DHT22;8431;52.458;9.998;2023-04-24T15:10:02;8.70;99.90
16635;DHT22;8431;52.458;9.998;2023-04-24T15:12:29;8.60;99.90
16635;DHT22;8431;52.458;9.998;2023-04-24T15:14:57;8.60;99.90
16635;DHT22;8431;52.458;9.998;2023-04-24T15:17:24;8.50;99.90
16635;DHT22;8431;52.458;9.998;2023-04-24T15:19:53;8.40;99.90
16635;DHT22;8431;52.458;9.998;2023-04-24T15:22:20;8.40;99.90
16635;DHT22;8431;52.458;9.998;2023-04-24T15:24:48;8.50;99.90
16635;DHT22;8431;52.458;9.998;2023-04-24T15:27:19;8.60;99.90
16635;DHT22;8431;52.458;9.998;2023-04-24T15:30:10;8.60;99.90
16635;DHT22;8431;52.458;9.998;2023-04-24T15:32:44;8.60;99.90
16635;DHT22;8431;52.458;9.998;2023-04-24T15:35:12;8.80;99.90
16635;DHT22;8431;52.458;9.998;2023-04-24T15:37:39;8.70;99.90
16635;DHT22;8431;52.458;9.998;2023-04-24T15:40:07;8.80;99.90
16635;DHT22;8431;52.458;9.998;2023-04-24T15:45:49;8.70;99.90
16635;DHT22;8431;52.458;9.998;2023-04-24T15:48:16;8.70;99.90
16635;DHT22;8431;52.458;9.998;2023-04-24T15:50:44;8.70;99.90
16635;DHT22;8431;52.458;9.998;2023-04-24T15:53:11;8.70;99.90
16635;DHT22;8431;52.458;9.998;2023-04-24T15:55:38;8.70;99.90
16635;DHT22;8431;52.458;9.998;2023-04-24T15:58:05;8.70;99.90
16635;DHT22;8431;52.458;9.998;2023-04-24T16:00:32;8.80;99.90
16635;DHT22;8431;52.458;9.998;2023-04-24T16:03:00;8.80;99.90
16635;DHT22;8431;52.458;9.998;2023-04-24T16:05:27;8.90;99.90
16635;DHT22;8431;52.458;9.998;2023-04-24T16:07:55;8.90;99.90
16635;DHT22;8431;52.458;9.998;2023-04-24T16:10:23;8.90;99.90
16635;DHT22;8431;52.458;9.998;2023-04-24T16:12:50;8.80;99.90
16635;DHT22;8431;52.458;9.998;2023-04-24T16:15:18;8.90;99.90
16635;DHT22;8431;52.458;9.998;2023-04-24T16:17:45;8.90;99.90
16635;DHT22;8431;52.458;9.998;2023-04-24T16:20:12;8.90;99.90
16635;DHT22;8431;52.458;9.998;2023-04-24T16:22:39;9.10;99.90
16635;DHT22;8431;52.458;9.998;2023-04-24T16:25:09;9.10;99.90
16635;DHT22;8431;52.458;9.998;2023-04-24T16:27:36;9.00;99.90
16635;DHT22;8431;52.458;9.998;2023-04-24T16:30:04;9.10;99.90
16635;DHT22;8431;52.458;9.998;2023-04-24T16:32:31;9.00;99.90
16635;DHT22;8431;52.458;9.998;2023-04-24T16:34:58;9.00;99.90
16635;DHT22;8431;52.458;9.998;2023-04-24T16:37:25;9.00;99.90
16635;DHT22;8431;52.458;9.998;2023-04-24T16:39:54;9.00;99.90
16635;DHT22;8431;52.458;9.998;2023-04-24T16:42:22;9.10;99.90
16635;DHT22;8431;52.458;9.998;2023-04-24T16:44:49;9.20;99.90
16635;DHT22;8431;52.458;9.998;2023-04-24T16:47:16;9.20;99.90
16635;DHT22;8431;52.458;9.998;2023-04-24T16:49:43;9.20;99.90
16635;DHT22;8431;52.458;9.998;2023-04-24T16:52:11;9.10;99.90
16635;DHT22;8431;52.458;9.998;2023-04-24T16:54:38;9.20;99.90
16635;DHT22;8431;52.458;9.998;2023-04-24T16:57:05;9.20;99.90
16635;DHT22;8431;52.458;9.998;2023-04-24T16:59:34;9.20;99.90
16635;DHT22;8431;52.458;9.998;2023-04-24T17:02:01;9.30;99.90
16635;DHT22;8431;52.458;9.998;2023-04-24T17:04:29;9.30;99.90
16635;DHT22;8431;52.458;9.998;2023-04-24T17:06:56;9.40;99.90
16635;DHT22;8431;52.458;9.998;2023-04-24T17:09:23;9.40;99.90